Time;durP1;ratioP1;P1;durP2;ratioP2;P2;SDS_P1;SDS_P2;PMS_P1;PMS_P2;Temp;Humidity;BMP_temperature;BMP_pressure;BME280_temperature;BME280_humidity;BME280_pressure;Samples;Min_cycle;Max_cycle;Signal;HPM_P1;HPM_P2
2023/01/09 00:00:17;;;;;;;22.42;12.00;;;;;;;5.20;nan;100385.75;5003712;28;20388;-67
2023/01/09 00:02:43;;;;;;;21.40;11.82;;;;;;;5.24;nan;100394.81;4999661;28;20029;-66
2023/01/09 00:05:14;;;;;;;19.63;11.40;;;;;;;5.32;nan;100407.72;5003326;28;20056;-67
2023/01/09 00:07:40;;;;;;;20.02;11.68;;;;;;;5.25;nan;100393.00;5000176;28;20014;-66
2023/01/09 00:10:06;;;;;;;21.35;11.52;;;;;;;5.32;nan;100397.28;5000909;28;20026;-66
2023/01/09 00:12:33;;;;;;;20.17;10.95;;;;;;;5.32;nan;100401.69;5003185;28;20029;-66
2023/01/09 00:14:58;;;;;;;21.33;11.95;;;;;;;5.27;nan;100389.22;5006148;28;20026;-67
2023/01/09 00:17:23;;;;;;;19.85;11.25;;;;;;;5.30;nan;100396.66;5004192;28;20032;-67
2023/01/09 00:19:49;;;;;;;20.90;11.05;;;;;;;5.19;nan;100373.69;5004935;28;20057;-66
2023/01/09 00:22:14;;;;;;;18.70;10.43;;;;;;;5.33;nan;100400.69;4999831;28;20057;-67
2023/01/09 00:24:39;;;;;;;21.20;11.38;;;;;;;5.27;nan;100397.03;5005638;28;20025;-67
2023/01/09 00:27:05;;;;;;;20.33;11.05;;;;;;;5.35;nan;100400.50;5005733;28;20026;-67
2023/01/09 00:29:31;;;;;;;21.95;11.20;;;;;;;5.32;nan;100391.25;5001640;28;20058;-67
2023/01/09 00:31:56;;;;;;;18.80;10.30;;;;;;;5.28;nan;100384.78;5000153;28;20384;-67
2023/01/09 00:34:22;;;;;;;26.63;11.35;;;;;;;5.37;nan;100388.06;5004556;28;20018;-67
2023/01/09 00:36:47;;;;;;;19.80;11.20;;;;;;;5.33;nan;100390.25;4999859;28;20109;-67
2023/01/09 00:39:13;;;;;;;22.42;11.23;;;;;;;5.29;nan;100378.56;4998747;28;20133;-68
2023/01/09 00:41:42;;;;;;;21.27;11.35;;;;;;;5.32;nan;100380.81;5003038;28;20399;-67
2023/01/09 00:44:15;;;;;;;17.75;10.45;;;;;;;5.21;nan;100363.84;5000125;28;20041;-67
2023/01/09 00:46:46;;;;;;;22.13;11.05;;;;;;;5.29;nan;100376.78;5003654;28;20436;-66
2023/01/09 00:49:13;;;;;;;22.52;11.05;;;;;;;5.26;nan;100364.09;5007510;28;20026;-67
2023/01/09 00:51:40;;;;;;;21.77;10.68;;;;;;;5.35;nan;100374.41;4988267;28;20498;-66
2023/01/09 00:54:08;;;;;;;22.48;11.35;;;;;;;5.35;nan;100377.00;4988383;28;20033;-66
2023/01/09 00:56:35;;;;;;;19.05;10.45;;;;;;;5.28;nan;100363.91;5003829;28;20033;-67
2023/01/09 00:59:01;;;;;;;20.40;11.35;;;;;;;4.95;nan;100314.88;5000303;28;20026;-66
2023/01/09 01:01:26;;;;;;;22.52;10.23;;;;;;;5.31;nan;100366.94;5004107;28;20053;-67
2023/01/09 01:03:52;;;;;;;22.58;11.32;;;;;;;5.15;nan;100338.53;5007090;28;20029;-67
2023/01/09 01:09:01;;;;;;;21.38;10.63;;;;;;;5.25;nan;100359.88;5010869;28;20041;-67
2023/01/09 01:11:26;;;;;;;18.13;9.98;;;;;;;5.20;nan;100351.00;5008200;28;20021;-67
2023/01/09 01:13:52;;;;;;;22.75;10.27;;;;;;;5.29;nan;100353.28;4991143;28;20380;-67
2023/01/09 01:16:18;;;;;;;19.98;10.45;;;;;;;5.27;nan;100347.44;5003813;28;20537;-67
2023/01/09 01:18:44;;;;;;;18.73;10.38;;;;;;;5.27;nan;100339.59;5000018;28;20468;-67
2023/01/09 01:21:12;;;;;;;20.50;11.20;;;;;;;5.30;nan;100357.50;4999938;28;20080;-67
2023/01/09 01:23:38;;;;;;;20.52;10.43;;;;;;;5.33;nan;100357.09;5002805;28;20026;-67
2023/01/09 01:26:12;;;;;;;20.38;10.23;;;;;;;5.35;nan;100350.91;5003852;28;20041;-67
2023/01/09 01:28:38;;;;;;;17.15;10.35;;;;;;;5.28;nan;100332.56;5004286;28;20026;-67
2023/01/09 01:31:04;;;;;;;20.48;11.43;;;;;;;5.35;nan;100328.19;5005719;28;20034;-67
2023/01/09 01:33:30;;;;;;;21.35;12.25;;;;;;;5.41;nan;100340.50;5009321;28;20042;-67
2023/01/09 01:36:09;;;;;;;18.17;10.85;;;;;;;5.28;nan;100325.53;5003316;28;20041;-67
2023/01/09 01:38:35;;;;;;;16.90;10.00;;;;;;;5.43;nan;100340.28;5000846;28;20073;-67
2023/01/09 01:41:01;;;;;;;23.23;9.82;;;;;;;5.24;nan;100311.28;5003911;28;20037;-67
2023/01/09 01:43:46;;;;;;;18.33;9.98;;;;;;;5.43;nan;100337.69;5004951;28;20026;-68
2023/01/09 01:46:11;;;;;;;17.67;10.40;;;;;;;5.42;nan;100317.81;5001878;28;20034;-67
2023/01/09 01:48:36;;;;;;;18.67;10.13;;;;;;;5.42;nan;100309.97;5003680;28;20109;-67
2023/01/09 01:51:05;;;;;;;18.00;9.60;;;;;;;5.43;nan;100316.78;4987943;28;20045;-68
2023/01/09 01:53:38;;;;;;;16.92;9.18;;;;;;;5.39;nan;100308.56;5007751;28;20101;-67
2023/01/09 01:56:27;;;;;;;17.27;9.45;;;;;;;5.35;nan;100311.72;5007416;28;20510;-67
2023/01/09 01:59:04;;;;;;;16.33;9.27;;;;;;;5.25;nan;100294.59;5008434;28;20030;-67
2023/01/09 02:01:32;;;;;;;18.25;9.95;;;;;;;5.23;nan;100293.19;5006026;28;20496;-67
2023/01/09 02:04:00;;;;;;;18.80;9.48;;;;;;;5.24;nan;100295.63;5002583;28;20048;-68
2023/01/09 02:06:27;;;;;;;16.80;10.15;;;;;;;5.18;nan;100272.09;5004073;28;20045;-68
2023/01/09 02:08:52;;;;;;;19.73;9.80;;;;;;;5.21;nan;100276.91;4993170;28;20018;-68
2023/01/09 02:11:19;;;;;;;17.90;9.55;;;;;;;5.08;nan;100251.56;4981685;28;20030;-68
2023/01/09 02:13:45;;;;;;;16.90;9.38;;;;;;;5.15;nan;100260.22;5006235;28;20049;-68
2023/01/09 02:16:39;;;;;;;17.65;8.85;;;;;;;5.16;nan;100259.22;5005465;28;20527;-68
2023/01/09 02:19:14;;;;;;;18.35;9.63;;;;;;;5.17;nan;100257.41;4998718;28;20045;-68
2023/01/09 02:21:45;;;;;;;18.98;9.30;;;;;;;5.16;nan;100256.59;5006859;28;20091;-68
2023/01/09 02:24:35;;;;;;;19.08;9.38;;;;;;;5.19;nan;100253.59;5003622;28;20076;-67
2023/01/09 02:27:00;;;;;;;20.42;8.73;;;;;;;5.18;nan;100254.59;4998851;28;20105;-68
2023/01/09 02:29:47;;;;;;;16.33;9.23;;;;;;;5.17;nan;100246.97;4999324;28;20156;-68
2023/01/09 02:32:21;;;;;;;20.75;9.88;;;;;;;5.11;nan;100238.09;5006938;28;20033;-67
2023/01/09 02:34:58;;;;;;;14.35;8.13;;;;;;;5.16;nan;100237.53;5005476;28;21490;-68
2023/01/09 02:37:33;;;;;;;15.88;8.13;;;;;;;5.17;nan;100237.34;5000606;28;20080;-68
2023/01/09 02:40:12;;;;;;;15.88;8.93;;;;;;;5.18;nan;100228.50;5005883;28;20053;-67
2023/01/09 02:42:40;;;;;;;18.05;8.90;;;;;;;5.16;nan;100214.84;5004434;28;20037;-68
2023/01/09 02:45:06;;;;;;;15.63;8.30;;;;;;;5.19;nan;100209.22;5000684;28;20038;-68
2023/01/09 02:47:39;;;;;;;15.80;8.57;;;;;;;5.19;nan;100217.06;5006118;28;20108;-68
2023/01/09 02:50:09;;;;;;;14.60;7.68;;;;;;;5.15;nan;100205.41;5000569;28;20269;-68
2023/01/09 02:53:06;;;;;;;15.13;8.70;;;;;;;5.14;nan;100200.38;5002671;28;20244;-68
2023/01/09 02:55:59;;;;;;;15.38;7.68;;;;;;;5.21;nan;100209.84;4989634;28;20026;-67
2023/01/09 02:58:49;;;;;;;17.20;8.50;;;;;;;5.23;nan;100210.44;5003490;28;20147;-68
2023/01/09 03:01:20;;;;;;;15.32;8.55;;;;;;;5.25;nan;100202.44;5003244;28;20048;-68
2023/01/09 03:03:54;;;;;;;17.15;8.38;;;;;;;5.18;nan;100189.34;5005084;28;20033;-68
2023/01/09 03:06:29;;;;;;;14.00;8.23;;;;;;;5.20;nan;100187.34;4990817;28;20111;-68
2023/01/09 03:09:00;;;;;;;16.85;9.07;;;;;;;5.18;nan;100189.34;5008286;28;20026;-68
2023/01/09 03:11:31;;;;;;;15.30;8.13;;;;;;;5.16;nan;100178.28;5007743;28;20602;-68
2023/01/09 03:14:07;;;;;;;13.80;7.97;;;;;;;5.13;nan;100172.69;5004360;28;20026;-68
2023/01/09 03:16:36;;;;;;;15.45;8.32;;;;;;;5.13;nan;100178.69;5004656;28;20040;-68
2023/01/09 03:19:05;;;;;;;14.68;7.60;;;;;;;5.04;nan;100169.41;5004615;28;20030;-68
2023/01/09 03:21:31;;;;;;;17.20;8.02;;;;;;;5.11;nan;100181.50;5007551;28;20029;-68
2023/01/09 03:23:59;;;;;;;14.90;7.82;;;;;;;5.13;nan;100178.69;5002265;28;20511;-68
2023/01/09 03:26:27;;;;;;;13.82;7.57;;;;;;;5.08;nan;100175.88;5004783;28;20423;-68
2023/01/09 03:28:53;;;;;;;16.13;8.25;;;;;;;4.99;nan;100171.81;4998470;28;20025;-68
2023/01/09 03:31:19;;;;;;;13.88;7.25;;;;;;;4.94;nan;100164.56;4999641;28;20704;-68
2023/01/09 03:33:44;;;;;;;12.48;7.53;;;;;;;5.04;nan;100185.88;5005974;28;20034;-68
2023/01/09 03:36:11;;;;;;;17.75;8.13;;;;;;;5.04;nan;100175.44;5003879;28;20045;-67
2023/01/09 03:38:36;;;;;;;14.07;7.90;;;;;;;4.98;nan;100170.19;5002362;28;20034;-68
2023/01/09 03:41:02;;;;;;;16.02;8.60;;;;;;;4.96;nan;100177.41;5003530;28;20079;-68
2023/01/09 03:43:28;;;;;;;12.10;7.55;;;;;;;4.80;nan;100142.81;4998509;28;20033;-68
2023/01/09 03:45:53;;;;;;;15.40;8.32;;;;;;;4.80;nan;100148.03;5006985;28;20026;-68
2023/01/09 03:48:19;;;;;;;19.50;8.15;;;;;;;4.76;nan;100144.19;5003350;28;20022;-68
2023/01/09 03:50:47;;;;;;;17.08;7.90;;;;;;;4.74;nan;100133.16;5006678;28;20033;-69
2023/01/09 03:53:13;;;;;;;12.85;7.20;;;;;;;4.77;nan;100147.63;4987802;28;20037;-67
2023/01/09 03:55:46;;;;;;;14.98;7.45;;;;;;;4.78;nan;100150.00;5001863;28;20026;-67
2023/01/09 03:58:12;;;;;;;13.57;7.35;;;;;;;4.75;nan;100142.59;4997206;28;20062;-67
2023/01/09 04:00:39;;;;;;;11.45;6.88;;;;;;;4.83;nan;100152.03;4997812;28;20428;-67
2023/01/09 04:03:05;;;;;;;12.07;6.63;;;;;;;4.84;nan;100144.03;5006970;28;20032;-67
2023/01/09 04:05:30;;;;;;;11.57;6.47;;;;;;;4.85;nan;100140.41;4995393;28;20857;-67
2023/01/09 04:07:55;;;;;;;11.35;6.43;;;;;;;4.54;nan;100080.88;4999332;28;20118;-67
2023/01/09 04:10:21;;;;;;;13.50;6.60;;;;;;;4.89;nan;100135.63;5002821;28;20538;-67
2023/01/09 04:12:47;;;;;;;14.20;7.00;;;;;;;4.88;nan;100120.97;5001298;28;20018;-66
2023/01/09 04:15:12;;;;;;;12.88;6.82;;;;;;;4.79;nan;100112.50;4989256;28;20043;-66
2023/01/09 04:17:38;;;;;;;12.23;6.47;;;;;;;4.74;nan;100109.69;4996146;28;20117;-66
2023/01/09 04:20:03;;;;;;;13.77;6.53;;;;;;;4.78;nan;100112.69;5007793;28;20026;-66
2023/01/09 04:22:30;;;;;;;12.75;6.80;;;;;;;4.69;nan;100106.81;4993906;28;20044;-67
2023/01/09 04:24:56;;;;;;;11.38;6.68;;;;;;;4.81;nan;100123.56;4999907;28;20045;-66
2023/01/09 04:27:21;;;;;;;11.60;6.53;;;;;;;4.78;nan;100116.09;5004941;28;20022;-65
2023/01/09 04:29:47;;;;;;;11.90;6.47;;;;;;;4.79;nan;100115.13;5004187;28;20495;-66
2023/01/09 04:32:12;;;;;;;13.30;6.55;;;;;;;4.80;nan;100118.53;5003368;28;20026;-65
2023/01/09 04:34:37;;;;;;;11.07;6.53;;;;;;;4.64;nan;100093.56;5008733;28;20536;-65
2023/01/09 04:37:03;;;;;;;16.75;7.90;;;;;;;4.74;nan;100120.13;5001488;28;20034;-65
2023/01/09 04:39:28;;;;;;;11.05;6.78;;;;;;;4.72;nan;100127.31;4983712;28;20091;-68
2023/01/09 04:41:53;;;;;;;12.18;7.13;;;;;;;4.68;nan;100108.63;5007820;28;20033;-67
2023/01/09 04:44:25;;;;;;;13.52;7.55;;;;;;;4.64;nan;100110.00;4988474;28;20029;-67
2023/01/09 04:46:50;;;;;;;11.80;6.68;;;;;;;4.63;nan;100107.63;5001480;28;20022;-65
2023/01/09 04:49:16;;;;;;;12.93;6.95;;;;;;;4.61;nan;100112.22;5009243;28;20498;-66
2023/01/09 04:51:41;;;;;;;11.73;7.18;;;;;;;4.62;nan;100111.19;5004257;28;20029;-67
2023/01/09 04:54:06;;;;;;;14.98;8.00;;;;;;;4.60;nan;100111.41;5007832;28;20021;-66
2023/01/09 04:56:32;;;;;;;12.50;7.32;;;;;;;4.55;nan;100107.75;5005110;28;20132;-66
2023/01/09 04:58:57;;;;;;;12.30;7.72;;;;;;;4.49;nan;100106.72;4997551;28;20535;-66
2023/01/09 05:01:23;;;;;;;12.13;6.65;;;;;;;4.57;nan;100110.97;5002672;28;20495;-65
2023/01/09 05:03:48;;;;;;;14.73;7.35;;;;;;;4.54;nan;100103.56;4999023;28;20026;-65
2023/01/09 05:06:14;;;;;;;12.43;7.07;;;;;;;4.14;nan;100052.00;4979823;28;20050;-65
2023/01/09 05:08:39;;;;;;;13.15;7.68;;;;;;;4.46;nan;100109.72;4993200;28;20022;-67
2023/01/09 05:11:04;;;;;;;12.32;7.07;;;;;;;4.30;nan;100107.41;5007911;28;20042;-68
2023/01/09 05:13:30;;;;;;;11.90;6.90;;;;;;;4.14;nan;100104.13;5004289;28;20030;-67
2023/01/09 05:15:55;;;;;;;13.90;7.03;;;;;;;4.07;nan;100094.63;5003207;28;20121;-64
2023/01/09 05:18:21;;;;;;;12.75;7.13;;;;;;;4.07;nan;100105.03;5001580;28;20439;-69
2023/01/09 05:20:46;;;;;;;11.63;6.85;;;;;;;3.94;nan;100080.50;4999607;28;20033;-67
2023/01/09 05:23:11;;;;;;;13.00;7.05;;;;;;;3.94;nan;100074.50;5008597;28;20030;-68
2023/01/09 05:25:37;;;;;;;14.93;7.00;;;;;;;3.99;nan;100093.75;5002441;28;20014;-67
2023/01/09 05:28:02;;;;;;;11.27;6.63;;;;;;;4.07;nan;100097.22;4991557;28;20498;-67
2023/01/09 05:30:28;;;;;;;13.75;7.15;;;;;;;4.06;nan;100099.03;5011036;28;20057;-67
2023/01/09 05:32:53;;;;;;;14.10;7.22;;;;;;;3.73;nan;100046.69;5011614;28;20052;-67
2023/01/09 05:35:19;;;;;;;16.13;7.88;;;;;;;4.14;nan;100116.31;5003760;28;20477;-66
2023/01/09 05:37:45;;;;;;;17.38;8.82;;;;;;;4.12;nan;100121.75;5004682;28;20054;-66
2023/01/09 05:40:11;;;;;;;19.80;9.75;;;;;;;4.07;nan;100110.25;5003526;28;20042;-68
2023/01/09 05:42:36;;;;;;;19.55;9.48;;;;;;;3.94;nan;100088.31;5004737;28;20033;-68
2023/01/09 05:45:03;;;;;;;22.38;10.60;;;;;;;3.94;nan;100090.94;4984842;28;20041;-68
2023/01/09 05:47:29;;;;;;;19.08;9.70;;;;;;;3.89;nan;100087.28;4970075;28;20026;-67
2023/01/09 05:49:57;;;;;;;19.40;10.07;;;;;;;3.81;nan;100096.03;5001867;28;20455;-68
2023/01/09 05:52:23;;;;;;;18.67;9.70;;;;;;;3.89;nan;100108.94;4993283;28;20033;-67
2023/01/09 05:54:49;;;;;;;18.92;10.10;;;;;;;3.76;nan;100099.22;5004078;28;20090;-68
2023/01/09 05:57:15;;;;;;;21.48;10.73;;;;;;;3.72;nan;100104.97;4995038;28;20104;-67
2023/01/09 05:59:40;;;;;;;23.33;11.13;;;;;;;3.65;nan;100099.72;5006381;28;20469;-67
2023/01/09 06:02:05;;;;;;;34.65;12.55;;;;;;;3.72;nan;100100.56;5002375;28;20061;-66
2023/01/09 06:04:31;;;;;;;33.28;14.07;;;;;;;3.73;nan;100091.75;4999919;28;20029;-67
2023/01/09 06:06:56;;;;;;;32.40;14.85;;;;;;;3.68;nan;100088.09;4992130;28;20045;-67
2023/01/09 06:09:22;;;;;;;32.40;12.77;;;;;;;3.58;nan;100065.00;5004187;28;20034;-68
2023/01/09 06:11:47;;;;;;;20.70;10.70;;;;;;;3.66;nan;100074.47;5014092;28;20029;-67
2023/01/09 06:14:12;;;;;;;16.02;9.35;;;;;;;3.71;nan;100074.72;5005832;28;20026;-67
2023/01/09 06:16:38;;;;;;;17.77;9.30;;;;;;;3.65;nan;100065.06;5002778;28;20045;-67
2023/01/09 06:19:04;;;;;;;21.92;10.52;;;;;;;3.75;nan;100070.75;5010377;28;20037;-67
2023/01/09 06:21:31;;;;;;;19.70;10.27;;;;;;;3.70;nan;100067.91;4982830;28;20033;-68
2023/01/09 06:23:56;;;;;;;18.88;9.32;;;;;;;3.68;nan;100049.84;4990113;28;20035;-66
2023/01/09 06:26:22;;;;;;;20.77;10.35;;;;;;;3.76;nan;100061.94;5009577;28;20030;-66
2023/01/09 06:28:47;;;;;;;19.23;9.98;;;;;;;3.74;nan;100051.72;5012146;28;20021;-66
2023/01/09 06:31:13;;;;;;;15.65;8.77;;;;;;;3.77;nan;100050.53;5005942;28;20037;-68
2023/01/09 06:33:38;;;;;;;17.17;9.57;;;;;;;3.81;nan;100062.19;4987536;28;20140;-68
2023/01/09 06:36:04;;;;;;;20.10;10.15;;;;;;;3.76;nan;100059.31;4991392;28;20117;-68
2023/01/09 06:38:29;;;;;;;20.10;10.55;;;;;;;3.73;nan;100051.91;5004371;28;20106;-69
2023/01/09 06:40:55;;;;;;;16.70;9.40;;;;;;;3.80;nan;100063.16;4982203;28;20028;-67
2023/01/09 06:43:20;;;;;;;18.08;9.50;;;;;;;3.66;nan;100041.41;5006325;28;20061;-67
2023/01/09 06:45:46;;;;;;;19.90;9.25;;;;;;;3.77;nan;100063.56;5001796;28;20539;-69
2023/01/09 06:48:11;;;;;;;18.27;10.38;;;;;;;3.70;nan;100062.69;5001454;28;20035;-69
2023/01/09 06:50:37;;;;;;;20.27;10.80;;;;;;;3.66;nan;100053.63;4985708;28;20030;-68
2023/01/09 06:53:02;;;;;;;22.50;11.02;;;;;;;3.70;nan;100054.88;4981078;28;20561;-69
2023/01/09 06:55:28;;;;;;;19.20;10.10;;;;;;;3.72;nan;100053.69;5005699;28;20117;-68
2023/01/09 06:57:53;;;;;;;21.27;11.02;;;;;;;3.65;nan;100032.00;5001985;28;20026;-68
2023/01/09 07:00:21;;;;;;;24.95;11.60;;;;;;;3.70;nan;100031.44;4998257;28;20088;-70
2023/01/09 07:02:47;;;;;;;26.00;12.35;;;;;;;3.73;nan;100029.25;5005096;28;20053;-70
2023/01/09 07:05:12;;;;;;;30.17;13.82;;;;;;;3.84;nan;100043.56;4984184;28;20034;-69
2023/01/09 07:07:39;;;;;;;28.98;14.20;;;;;;;3.89;nan;100050.81;5002687;28;20399;-70
2023/01/09 07:10:05;;;;;;;24.77;12.80;;;;;;;3.93;nan;100036.44;5007315;28;20625;-69
2023/01/09 07:12:30;;;;;;;29.27;15.05;;;;;;;3.93;nan;100032.03;5002974;28;20067;-70
2023/01/09 07:14:55;;;;;;;39.95;17.63;;;;;;;4.07;nan;100060.75;4972086;28;20476;-69
2023/01/09 07:17:21;;;;;;;38.47;16.27;;;;;;;4.01;nan;100034.47;4989284;28;20034;-70
2023/01/09 07:19:46;;;;;;;40.65;15.43;;;;;;;4.01;nan;100047.50;5005526;28;20029;-70
2023/01/09 07:22:11;;;;;;;31.08;15.18;;;;;;;3.90;nan;100021.16;4992839;28;20104;-70
2023/01/09 07:24:37;;;;;;;27.27;13.30;;;;;;;4.01;nan;100025.84;5003906;28;20050;-69
2023/01/09 07:27:03;;;;;;;35.35;13.70;;;;;;;3.94;nan;100004.16;5006108;28;20403;-70
2023/01/09 07:29:28;;;;;;;26.73;13.18;;;;;;;4.14;nan;100027.72;5001358;28;20544;-69
2023/01/09 07:31:54;;;;;;;32.13;12.63;;;;;;;4.05;nan;100006.25;4985932;28;20022;-70
2023/01/09 07:34:19;;;;;;;28.30;12.98;;;;;;;4.07;nan;99999.03;5007705;28;21347;-70
2023/01/09 07:36:49;;;;;;;31.17;13.13;;;;;;;4.16;nan;100000.47;4990274;28;20478;-69
2023/01/09 07:39:14;;;;;;;28.27;13.27;;;;;;;4.22;nan;99997.09;5002493;28;20157;-70
2023/01/09 07:41:40;;;;;;;31.52;13.20;;;;;;;4.17;nan;99972.63;4998993;28;20160;-69
2023/01/09 07:44:06;;;;;;;27.60;13.57;;;;;;;4.00;nan;99949.50;5006964;28;20041;-69
2023/01/09 07:46:32;;;;;;;28.23;13.40;;;;;;;4.32;nan;99995.97;5007511;28;20029;-70
2023/01/09 07:48:57;;;;;;;27.70;12.52;;;;;;;4.32;nan;99975.09;4988126;28;20026;-69
2023/01/09 07:51:22;;;;;;;25.67;13.38;;;;;;;4.28;nan;99966.84;5008105;28;20607;-69
2023/01/09 07:53:48;;;;;;;24.02;13.18;;;;;;;4.09;nan;99918.06;5004378;28;20027;-69
2023/01/09 07:56:13;;;;;;;26.75;12.65;;;;;;;4.52;nan;99983.00;5006445;28;20032;-70
2023/01/09 07:58:39;;;;;;;30.05;13.32;;;;;;;;;;5004729;28;20377;-69
2023/01/09 08:01:05;;;;;;;26.13;13.52;;;;;;;4.64;nan;99971.00;5008432;28;20041;-70
2023/01/09 08:03:32;;;;;;;26.13;13.73;;;;;;;4.82;nan;99981.69;5007268;28;20018;-69
2023/01/09 08:05:58;;;;;;;35.60;15.90;;;;;;;4.91;nan;99971.88;5002952;28;20056;-69
2023/01/09 08:08:23;;;;;;;28.65;14.10;;;;;;;5.01;nan;99987.16;5006261;28;20096;-69
2023/01/09 08:10:49;;;;;;;28.48;14.35;;;;;;;5.08;nan;99974.91;4996340;28;20021;-70
2023/01/09 08:13:14;;;;;;;25.70;13.95;;;;;;;5.18;nan;99983.16;5006945;28;20037;-69
2023/01/09 08:15:39;;;;;;;26.50;13.45;;;;;;;5.06;nan;99962.06;5004523;28;20026;-70
2023/01/09 08:18:05;;;;;;;26.35;13.63;;;;;;;5.15;nan;99970.50;5011813;28;20029;-72
2023/01/09 08:20:30;;;;;;;27.48;13.98;;;;;;;5.13;nan;99963.88;5009881;28;20399;-73
2023/01/09 08:22:56;;;;;;;29.13;14.25;;;;;;;5.23;nan;99966.88;5009172;28;20484;-73
2023/01/09 08:25:21;;;;;;;32.05;15.10;;;;;;;5.23;nan;99959.06;4991175;28;20033;-72
2023/01/09 08:27:47;;;;;;;33.08;14.07;;;;;;;5.25;nan;99965.69;5003768;28;20077;-72
2023/01/09 08:30:12;;;;;;;35.95;14.32;;;;;;;5.32;nan;99971.72;4999783;28;20037;-72
2023/01/09 08:32:38;;;;;;;29.50;12.07;;;;;;;5.37;nan;99981.56;5010855;28;20033;-72
2023/01/09 08:35:04;;;;;;;27.20;12.98;;;;;;;5.30;nan;99963.28;5000058;28;20041;-72
2023/01/09 08:37:29;;;;;;;23.80;11.52;;;;;;;5.36;nan;99972.09;5005669;28;20613;-73
2023/01/09 08:39:55;;;;;;;21.67;11.00;;;;;;;5.45;nan;99977.94;5004444;28;20022;-72
2023/01/09 08:47:49;;;;;;;21.15;10.43;;;;;;;5.51;nan;99969.31;5004776;28;20183;-73
2023/01/09 08:50:15;;;;;;;18.05;10.13;;;;;;;5.48;nan;99970.50;5008999;28;20033;-69
2023/01/09 08:52:40;;;;;;;22.42;10.32;;;;;;;5.57;nan;99980.75;5005316;28;20048;-69
2023/01/09 08:55:06;;;;;;;23.55;10.27;;;;;;;5.61;nan;99980.13;5003843;28;20021;-68
2023/01/09 08:57:31;;;;;;;23.50;10.25;;;;;;;5.60;nan;99970.69;5002071;28;20518;-69
2023/01/09 08:59:57;;;;;;;21.17;10.10;;;;;;;5.61;nan;99977.53;4996442;28;20023;-69
2023/01/09 09:02:22;;;;;;;23.98;9.82;;;;;;;5.63;nan;99965.06;5006071;28;20029;-69
2023/01/09 09:04:51;;;;;;;22.98;10.75;;;;;;;5.63;nan;99948.59;4991532;28;20033;-69
2023/01/09 09:07:20;;;;;;;22.88;10.88;;;;;;;5.79;nan;99963.03;5005582;28;20050;-69
2023/01/09 09:09:45;;;;;;;22.20;10.63;;;;;;;5.66;nan;99948.97;5007082;28;20064;-69
2023/01/09 09:12:10;;;;;;;25.13;11.15;;;;;;;5.72;nan;99957.81;5003922;28;20046;-69
2023/01/09 09:17:20;;;;;;;23.70;11.10;;;;;;;5.86;nan;99961.19;5007860;28;20053;-68
2023/01/09 09:19:45;;;;;;;18.58;10.38;;;;;;;5.87;nan;99944.53;5005415;28;20463;-68
2023/01/09 09:22:10;;;;;;;17.77;10.20;;;;;;;5.99;nan;99948.16;5005753;28;20026;-68
2023/01/09 09:24:36;;;;;;;31.38;13.30;;;;;;;6.02;nan;99952.94;5009534;28;20084;-69
2023/01/09 09:27:02;;;;;;;25.83;11.77;;;;;;;6.05;nan;99933.44;5007270;28;20025;-69
2023/01/09 09:29:27;;;;;;;21.17;10.88;;;;;;;6.15;nan;99941.63;5005124;28;20096;-68
2023/01/09 09:31:53;;;;;;;20.58;11.07;;;;;;;6.13;nan;99935.81;5009869;28;20393;-68
2023/01/09 09:34:19;;;;;;;20.23;10.32;;;;;;;6.14;nan;99922.53;5003441;28;20088;-68
2023/01/09 09:36:44;;;;;;;21.85;9.90;;;;;;;6.36;nan;99937.94;5006573;28;20033;-68
2023/01/09 09:39:09;;;;;;;24.02;10.70;;;;;;;6.42;nan;99941.53;5003676;28;20064;-69
2023/01/09 09:45:11;;;;;;;20.60;10.30;;;;;;;6.58;nan;99935.81;5001968;28;20547;-69
2023/01/09 09:48:29;;;;;;;18.58;10.05;;;;;;;6.58;nan;99933.19;5002904;28;20097;-69
2023/01/09 09:51:09;;;;;;;20.60;10.73;;;;;;;6.72;nan;99939.16;4993678;28;20484;-69
2023/01/09 09:53:42;;;;;;;18.48;9.93;;;;;;;6.76;nan;99943.75;4997344;28;20349;-69
2023/01/09 09:56:14;;;;;;;17.65;9.90;;;;;;;6.80;nan;99939.72;5003769;28;20026;-70
2023/01/09 09:58:43;;;;;;;22.08;10.75;;;;;;;6.85;nan;99931.25;4999509;28;20030;-69
2023/01/09 10:01:14;;;;;;;19.88;10.27;;;;;;;6.84;nan;99915.72;5003932;28;20477;-70
2023/01/09 10:03:45;;;;;;;25.67;12.15;;;;;;;6.95;nan;99928.94;5005100;28;20065;-69
2023/01/09 10:06:30;;;;;;;24.23;11.18;;;;;;;6.85;nan;99906.84;5006356;28;20049;-69
2023/01/09 10:09:17;;;;;;;20.25;10.52;;;;;;;7.06;nan;99919.59;5007911;28;20037;-70
2023/01/09 10:11:48;;;;;;;22.38;10.63;;;;;;;7.10;nan;99923.38;4998616;28;20488;-69
2023/01/09 10:14:14;;;;;;;21.45;10.90;;;;;;;6.97;nan;99895.50;5004491;28;20130;-69
2023/01/09 10:16:45;;;;;;;20.95;10.65;;;;;;;7.16;nan;99911.25;5007637;28;20100;-69
2023/01/09 10:19:22;;;;;;;20.73;10.30;;;;;;;7.18;nan;99910.06;5004207;28;20422;-69
2023/01/09 10:22:15;;;;;;;20.77;10.70;;;;;;;7.21;nan;99912.22;5007319;28;20613;-69
2023/01/09 10:25:09;;;;;;;23.67;11.30;;;;;;;7.22;nan;99905.16;4989833;28;20034;-68
2023/01/09 10:28:02;;;;;;;19.52;10.93;;;;;;;7.28;nan;99903.50;5005542;28;20668;-68
2023/01/09 10:30:50;;;;;;;17.10;9.65;;;;;;;;;;5008670;28;20060;-68
2023/01/09 10:33:37;;;;;;;14.38;6.60;;;;;;;7.45;nan;99896.72;5006773;28;20056;-69
2023/01/09 10:36:22;;;;;;;10.73;5.90;;;;;;;7.58;nan;99896.56;5001543;28;20032;-67
2023/01/09 10:38:51;;;;;;;9.73;6.00;;;;;;;7.71;nan;99893.03;5000461;28;20038;-68
2023/01/09 10:41:57;;;;;;;10.00;6.10;;;;;;;7.87;nan;99892.41;5008179;28;20365;-68
2023/01/09 10:44:32;;;;;;;11.93;5.65;;;;;;;7.98;nan;99875.16;5007650;28;20037;-69
2023/01/09 10:46:59;;;;;;;9.65;5.82;;;;;;;8.05;nan;99856.72;5006948;28;20026;-68
2023/01/09 10:49:25;;;;;;;12.25;6.00;;;;;;;8.26;nan;99879.84;5010923;28;20408;-71
2023/01/09 10:51:56;;;;;;;8.55;5.40;;;;;;;8.34;nan;99876.13;5008083;28;20033;-68
2023/01/09 10:54:25;;;;;;;10.50;5.53;;;;;;;8.42;nan;99867.16;5007294;28;20030;-69
2023/01/09 10:57:04;;;;;;;10.53;6.00;;;;;;;8.50;nan;99858.97;5006088;28;20037;-69
2023/01/09 10:59:30;;;;;;;8.68;5.65;;;;;;;8.51;nan;99856.13;5005432;28;20370;-70
2023/01/09 11:01:55;;;;;;;10.10;5.70;;;;;;;8.50;nan;99836.16;5002509;28;20146;-69
2023/01/09 11:04:38;;;;;;;11.80;5.80;;;;;;;8.59;nan;99849.72;5004655;28;20060;-70
2023/01/09 11:07:14;;;;;;;10.20;5.10;;;;;;;8.63;nan;99852.72;5010478;28;20061;-69
2023/01/09 11:09:58;;;;;;;10.32;5.78;;;;;;;8.69;nan;99855.25;5004405;28;20061;-70
2023/01/09 11:12:26;;;;;;;9.48;5.80;;;;;;;8.59;nan;99836.63;5000573;28;20416;-69
2023/01/09 11:14:52;;;;;;;11.95;6.13;;;;;;;8.64;nan;99842.00;5007060;28;20488;-69
2023/01/09 11:17:25;;;;;;;10.20;6.32;;;;;;;8.67;nan;99838.13;4994528;28;20033;-68
2023/01/09 11:20:06;;;;;;;11.93;6.35;;;;;;;8.20;nan;99764.53;5002607;28;20022;-68
2023/01/09 11:22:43;;;;;;;10.27;6.68;;;;;;;8.63;nan;99831.72;5006490;28;20018;-68
2023/01/09 11:25:14;;;;;;;11.15;6.05;;;;;;;8.58;nan;99818.50;5003953;28;20018;-69
2023/01/09 11:27:39;;;;;;;12.18;6.38;;;;;;;8.46;nan;99793.03;5000137;28;20030;-69
2023/01/09 11:30:08;;;;;;;11.90;6.10;;;;;;;8.59;nan;99822.69;5003488;28;20087;-68
2023/01/09 11:32:34;;;;;;;12.82;6.72;;;;;;;8.49;nan;99803.06;5002985;28;20026;-68
2023/01/09 11:35:00;;;;;;;10.00;6.43;;;;;;;8.58;nan;99813.25;5005019;28;20049;-70
2023/01/09 11:37:28;;;;;;;12.55;6.90;;;;;;;8.55;nan;99804.00;4993671;28;20060;-69
2023/01/09 11:39:56;;;;;;;13.57;6.75;;;;;;;8.58;nan;99802.75;5003804;28;20084;-69
2023/01/09 11:45:14;;;;;;;;;;;;;;;8.52;nan;99794.75;5006604;28;20061;-68
2023/01/09 11:47:39;;;;;;;12.85;6.78;;;;;;;8.50;nan;99782.88;5002088;28;19921;-68
2023/01/09 11:50:20;;;;;;;11.90;7.40;;;;;;;8.48;nan;99790.19;5005998;28;20379;-67
2023/01/09 11:53:18;;;;;;;12.13;7.18;;;;;;;8.41;nan;99773.75;5003225;28;20045;-68
2023/01/09 11:55:46;;;;;;;11.13;6.85;;;;;;;8.44;nan;99771.44;5004563;28;20068;-69
2023/01/09 11:58:15;;;;;;;11.73;7.15;;;;;;;8.36;nan;99757.84;5001933;28;20061;-69
2023/01/09 12:00:59;;;;;;;;;;;;;;;8.38;nan;99759.22;5003996;28;20072;-69
2023/01/09 12:03:33;;;;;;;12.07;6.65;;;;;;;8.35;nan;99758.84;5004946;28;19918;-68
2023/01/09 12:06:18;;;;;;;11.75;7.10;;;;;;;8.28;nan;99753.72;5000666;28;20064;-68